Flight Track Log - Related Links

Times and Time Zones

All times are in EDT time to prevent confusion due to time zone crossing. See the PDT4314 flight status page for this flight to view local times or setup timezone preferences in your user account.

Time Position Orientation Groundspeed Altitude Reporting Facility
EDT Latitude Longitude Course Direction KTS MPH feet Rate Location/Type
Thu 17:58:00 42.0499 -75.9277 180° South  Level Estimated
Thu 17:59:00 41.9955 -75.9288 181° South  Level FlightAware Approximate
Thu 18:00:00 41.9412 -75.9298 181° South  Level FlightAware Approximate
Thu 18:01:00 41.8868 -75.9308 181° South  Level FlightAware Approximate
Thu 18:02:00 41.8342 -75.9122 154° Southeast  Level Estimated
Thu 18:03:00 41.7816 -75.8937 160° South  Level Estimated
Thu 18:04:00 41.7290 -75.8752 159° South  Level Estimated
Thu 18:05:00 41.6763 -75.8578 166° South  Level FlightAware Approximate
Thu 18:06:00 41.6234 -75.8404 166° South  Level FlightAware Approximate
Thu 18:07:00 41.5709 -75.8220 153° Southeast  Level Estimated
Thu 18:08:00 41.5183 -75.8035 161° South  Level Estimated
Thu 18:09:00 41.4671 -75.7790 160° South  Level FlightAware Approximate
Thu 18:10:00 41.4159 -75.7545 160° South  Level FlightAware Approximate
Thu 18:11:00 41.3632 -75.7365 162° South  Level Estimated
Thu 18:12:00 41.3120 -75.7124 161° South  Level FlightAware Approximate
Thu 18:13:00 41.2607 -75.6884 161° South  Level FlightAware Approximate
Thu 18:14:00 41.2094 -75.6644 161° South  Level FlightAware Approximate
Thu 18:15:00 41.1581 -75.6404 161° South  Level FlightAware Approximate
Thu 18:16:00 41.1052 -75.6236 159° South  Level Estimated
Thu 18:17:00 41.0523 -75.6069 163° South  Level Estimated
Thu 18:18:00 41.0011 -75.5828 160° South  Level FlightAware Approximate
Thu 18:19:00 40.9498 -75.5588 161° South  Level FlightAware Approximate
Thu 18:20:00 40.8985 -75.5348 161° South  Level FlightAware Approximate
Thu 18:21:00 40.8473 -75.5108 161° South  Level FlightAware Approximate
Thu 18:22:00 40.7941 -75.4959 190° South  Level Estimated
Thu 18:23:00 40.7397 -75.4967 181° South  Level FlightAware Approximate
Thu 18:24:00 40.6853 -75.4974 181° South  Level FlightAware Approximate
Thu 18:25:00 40.6310 -75.4982 181° South  Level FlightAware Approximate
Thu 18:26:00 40.5784 -75.4801 187° South  Level Estimated
Thu 18:27:00 40.5246 -75.4912 189° South  Level FlightAware Approximate
Thu 18:27:54 40.5667 -75.5667 179° South 187 215 6,000  Level Philadelphia TRACON
Thu 18:28:00 40.4725 -75.4710 190° South  Level Estimated
Thu 18:28:30 40.5333 -75.5667 180° South 186 214 6,000  Level Philadelphia TRACON
Thu 18:29:00 40.4200 -75.4897 195° South  Level FlightAware Approximate
Thu 18:29:37 40.4833 -75.5667 180° South 201 231 5,400  Level Philadelphia TRACON
Thu 18:30:00 40.3675 -75.5083 195° South  Level FlightAware Approximate
Thu 18:30:25 40.4333 -75.5500 166° South 218 251 5,000  Level Philadelphia TRACON
Thu 18:31:00 40.3173 -75.4810 180° South  Level Estimated
Thu 18:31:19 40.3833 -75.5167 153° Southeast 200 230 5,000  Level Philadelphia TRACON
Thu 18:32:00 40.2671 -75.4537 143° Southeast  Level Estimated
Thu 18:32:31 40.3333 -75.4833 153° Southeast 198 228 4,500  Level Philadelphia TRACON
Thu 18:33:00 40.2180 -75.4526 179° South  Level FlightAware Approximate
Thu 18:33:31 40.2833 -75.4333 143° Southeast 201 231 4,000  Level Philadelphia TRACON
Thu 18:34:31 40.2333 -75.4000 153° Southeast 187 215 4,000 -48 Level Philadelphia TRACON
Thu 18:35:37 40.1833 -75.3833 166° South 171 197 3,900 -286 Descending Philadelphia TRACON
Thu 18:36:37 40.1333 -75.3667 166° South 184 212 3,400 -500 Descending Philadelphia TRACON
Thu 18:37:25 40.1000 -75.3333 143° Southeast 196 226 3,000 -235 Descending Philadelphia TRACON
Thu 18:38:19 40.0500 -75.3167 166° South 170 196 3,000 -200 Level Philadelphia TRACON
Thu 18:39:25 40.0167 -75.3000 159° South 132 152 2,600 -571 Descending Philadelphia TRACON
Thu 18:40:25 39.9833 -75.2833 159° South 133 153 1,800 -661 Descending Philadelphia TRACON
Thu 18:41:32 39.9500 -75.2667 159° South 98 113 1,200 -496 Descending Philadelphia TRACON
Thu 18:42:38 39.9167 -75.2500 159° South 94 108 700 -504 Descending Philadelphia TRACON
Thu 18:43:31 39.9000 -75.2333 143° Southeast 101 116 200 -566 Descending Philadelphia TRACON

Login

Don't have an account? Register now (free) for customized features, flight alerts, and more!